Time;durP1;ratioP1;P1;durP2;ratioP2;P2;SDS_P1;SDS_P2;PMS_P1;PMS_P2;Temp;Humidity;BMP_temperature;BMP_pressure;BME280_temperature;BME280_humidity;BME280_pressure;Samples;Min_cycle;Max_cycle;Signal;HPM_P1;HPM_P2
2022/09/02 00:02:06;;;;;;;5.42;2.67;;;;;;;14.79;62.22;101033.13;1751475;82;20909;-92
2022/09/02 00:04:33;;;;;;;2.83;2.47;;;;;;;14.74;62.49;101044.50;1752752;81;20906;-90
2022/09/02 00:07:00;;;;;;;6.95;2.77;;;;;;;14.69;62.53;101036.05;1752792;81;21186;-88
2022/09/02 00:09:27;;;;;;;7.55;2.87;;;;;;;14.67;63.24;101048.50;1704869;81;20949;-90
2022/09/02 00:11:54;;;;;;;6.83;3.12;;;;;;;14.67;63.24;101048.50;1751823;81;20972;-90
2022/09/02 00:14:25;;;;;;;8.13;3.35;;;;;;;14.67;63.09;101049.38;1752219;82;20854;-89
2022/09/02 00:16:52;;;;;;;5.30;2.90;;;;;;;14.66;63.06;101047.67;1750320;81;20885;-89
2022/09/02 00:19:22;;;;;;;5.05;2.45;;;;;;;14.65;63.39;101047.77;1751213;82;21119;-89
2022/09/02 00:21:50;;;;;;;4.92;2.83;;;;;;;14.63;63.69;101048.34;1750543;82;20934;-90
2022/09/02 00:24:19;;;;;;;8.10;2.37;;;;;;;14.59;63.68;101050.37;1752395;81;20914;-89
2022/09/02 00:26:45;;;;;;;6.50;3.00;;;;;;;14.54;63.94;101063.48;1750948;81;20945;-90
2022/09/02 00:29:14;;;;;;;7.10;2.42;;;;;;;14.42;64.52;101058.11;1750276;81;20973;-91
2022/09/02 00:31:42;;;;;;;5.22;2.60;;;;;;;14.42;64.52;101058.11;1750303;81;21325;-90
2022/09/02 00:34:09;;;;;;;7.65;2.58;;;;;;;14.34;65.38;101056.94;1750164;81;20862;-88
2022/09/02 00:36:35;;;;;;;3.25;2.37;;;;;;;14.34;65.38;101056.94;1750379;81;20911;-89
2022/09/02 00:39:04;;;;;;;5.22;2.62;;;;;;;14.29;65.05;101066.05;1750549;81;20978;-89
2022/09/02 00:41:31;;;;;;;3.58;2.92;;;;;;;14.26;65.27;101070.67;1750409;81;20919;-90
2022/09/02 00:44:06;;;;;;;4.78;2.87;;;;;;;14.21;65.55;101067.03;1727347;81;21237;-90
2022/09/02 00:46:33;;;;;;;5.72;3.05;;;;;;;14.18;65.74;101073.81;1749851;81;20936;-90
2022/09/02 00:49:26;;;;;;;4.30;2.37;;;;;;;14.14;66.09;101078.09;1752172;81;20874;-90
2022/09/02 00:52:19;;;;;;;3.62;2.62;;;;;;;14.03;66.73;101074.40;1751319;82;20981;-90
2022/09/02 00:54:52;;;;;;;6.03;2.92;;;;;;;14.03;66.73;101074.40;1751484;82;20977;-88
2022/09/02 00:57:22;;;;;;;5.27;2.53;;;;;;;13.97;66.76;101075.28;1753184;82;21302;-89
2022/09/02 01:00:17;;;;;;;5.00;2.52;;;;;;;13.93;66.96;101071.16;1752620;81;20861;-89
2022/09/02 01:02:49;;;;;;;5.60;3.00;;;;;;;13.89;66.94;101074.46;1752643;82;20972;-90
2022/09/02 01:05:17;;;;;;;6.60;2.75;;;;;;;13.82;66.50;101075.34;1752906;82;20974;-87
2022/09/02 01:07:44;;;;;;;6.53;2.62;;;;;;;13.78;65.97;101079.12;1752999;81;20910;-88
2022/09/02 01:10:16;;;;;;;8.08;3.40;;;;;;;13.74;65.70;101080.75;1753078;81;21108;-89
2022/09/02 01:12:43;;;;;;;3.92;3.05;;;;;;;13.71;65.86;101083.59;1753062;81;20897;-88
2022/09/02 01:15:11;;;;;;;5.30;3.02;;;;;;;13.67;65.68;101089.08;1751692;81;21335;-89
2022/09/02 01:17:45;;;;;;;6.62;3.47;;;;;;;13.67;65.68;101089.08;1750453;81;20952;-91
2022/09/02 01:20:17;;;;;;;6.03;3.08;;;;;;;13.69;65.91;101095.55;1750639;81;20996;-90
2022/09/02 01:22:45;;;;;;;6.10;2.87;;;;;;;13.71;66.15;101094.14;1750380;81;21156;-91
2022/09/02 01:25:19;;;;;;;5.95;3.95;;;;;;;13.69;66.16;101095.55;1750178;81;21359;-89
2022/09/02 01:27:47;;;;;;;;;;;;;;;13.67;65.62;101091.72;1753301;81;20968;-88
2022/09/02 01:30:22;;;;;;;4.97;3.00;;;;;;;13.65;65.65;101094.92;1750132;81;20095;-90
2022/09/02 01:32:52;;;;;;;6.60;2.98;;;;;;;13.61;65.78;101093.43;1750093;81;20925;-90
2022/09/02 01:35:19;;;;;;;6.40;3.83;;;;;;;13.56;65.90;101098.16;1750215;81;21782;-90
2022/09/02 01:37:47;;;;;;;6.50;3.47;;;;;;;13.53;66.23;101103.61;1750207;81;20933;-90
2022/09/02 01:40:16;;;;;;;8.20;3.37;;;;;;;13.48;66.21;101104.39;1751785;81;20929;-89
2022/09/02 01:42:44;;;;;;;5.25;3.60;;;;;;;13.45;66.18;101105.44;1750390;81;20973;-91
2022/09/02 01:45:10;;;;;;;7.20;3.52;;;;;;;13.42;66.34;101110.88;1750225;81;20882;-89
2022/09/02 01:47:38;;;;;;;5.67;3.25;;;;;;;13.40;66.42;101115.88;1750300;81;21299;-90
2022/09/02 01:50:06;;;;;;;7.03;2.98;;;;;;;13.37;66.63;101114.30;1750256;81;20881;-90
2022/09/02 01:52:33;;;;;;;6.97;3.37;;;;;;;13.35;67.17;101125.88;1750183;81;20932;-90
2022/09/02 01:55:02;;;;;;;5.25;2.75;;;;;;;13.30;67.54;101127.48;1750197;81;20996;-91
2022/09/02 01:57:30;;;;;;;6.10;3.40;;;;;;;13.26;68.05;101126.80;1750276;82;20858;-89
2022/09/02 01:59:57;;;;;;;4.97;2.95;;;;;;;13.21;68.36;101131.52;1750649;81;21343;-89
2022/09/02 02:02:25;;;;;;;4.35;3.12;;;;;;;13.16;68.66;101136.68;1750354;81;21426;-89
2022/09/02 02:04:52;;;;;;;6.40;2.75;;;;;;;13.10;68.78;101127.88;1750357;81;21282;-89
2022/09/02 02:07:21;;;;;;;5.87;3.27;;;;;;;13.06;69.04;101129.84;1750457;81;20913;-89
2022/09/02 02:09:49;;;;;;;5.08;2.75;;;;;;;13.03;68.68;101133.51;1750821;82;20886;-86
2022/09/02 02:12:18;;;;;;;5.10;3.30;;;;;;;13.00;68.71;101142.89;1750783;81;21119;-91
2022/09/02 02:14:45;;;;;;;10.28;4.70;;;;;;;12.98;68.71;101143.94;1750055;81;20948;-90
2022/09/02 02:17:12;;;;;;;5.42;3.22;;;;;;;12.93;68.70;101136.33;1750486;81;20950;-91
2022/09/02 02:19:39;;;;;;;6.70;2.58;;;;;;;12.91;68.85;101140.00;1750269;82;20898;-90
2022/09/02 02:22:07;;;;;;;7.30;2.77;;;;;;;12.87;68.86;101144.59;1750661;81;20965;-91
2022/09/02 02:24:34;;;;;;;6.53;3.30;;;;;;;12.82;68.78;101138.30;1750223;81;21216;-90
2022/09/02 02:27:01;;;;;;;4.05;2.95;;;;;;;12.78;68.78;101134.19;1750025;81;20870;-91
2022/09/02 02:29:29;;;;;;;7.22;2.83;;;;;;;12.75;68.49;101137.46;1749974;81;20897;-90
2022/09/02 02:31:55;;;;;;;6.10;3.80;;;;;;;12.74;68.13;101141.02;1750863;82;20909;-90
2022/09/02 02:34:22;;;;;;;9.40;3.42;;;;;;;12.71;67.98;101144.68;1752133;82;20913;-91
2022/09/02 02:36:49;;;;;;;7.58;3.25;;;;;;;12.68;68.17;101143.56;1751815;81;21595;-91
2022/09/02 02:39:16;;;;;;;6.15;3.15;;;;;;;12.65;68.31;101152.49;1752748;81;20846;-90
2022/09/02 02:41:43;;;;;;;5.87;3.80;;;;;;;12.62;68.57;101153.14;1752893;81;21001;-89
2022/09/02 02:44:10;;;;;;;8.53;3.20;;;;;;;12.59;68.71;101158.12;1751609;81;20901;-88
2022/09/02 02:46:37;;;;;;;6.65;4.03;;;;;;;12.57;68.73;101169.67;1751379;81;20886;-88
2022/09/02 02:49:04;;;;;;;6.08;3.12;;;;;;;12.51;68.59;101161.66;1752269;81;21129;-89
2022/09/02 02:51:33;;;;;;;7.20;2.80;;;;;;;12.46;68.36;101171.63;1752492;82;20858;-89
2022/09/02 02:54:00;;;;;;;6.25;4.67;;;;;;;12.41;68.52;101171.05;1752339;81;20945;-88
2022/09/02 02:56:29;;;;;;;7.17;3.08;;;;;;;12.36;68.63;101175.72;1751182;81;20918;-89
2022/09/02 02:59:02;;;;;;;10.03;4.17;;;;;;;12.31;68.92;101179.94;1750317;82;20972;-88
2022/09/02 03:01:31;;;;;;;9.08;3.67;;;;;;;12.26;69.29;101184.62;1750426;81;21245;-88
2022/09/02 03:03:57;;;;;;;6.28;3.70;;;;;;;12.23;69.75;101179.55;1750302;81;20897;-87
2022/09/02 03:06:24;;;;;;;7.37;4.03;;;;;;;12.20;70.03;101179.71;1750356;81;20977;-88
2022/09/02 03:08:53;;;;;;;5.08;3.65;;;;;;;12.17;69.97;101184.69;1750214;81;21040;-89
2022/09/02 03:11:21;;;;;;;7.50;3.60;;;;;;;12.13;69.68;101201.56;1750237;81;20885;-88
2022/09/02 03:13:50;;;;;;;7.42;4.00;;;;;;;12.11;69.57;101208.69;1750149;81;21204;-90
2022/09/02 03:16:18;;;;;;;7.17;4.80;;;;;;;12.08;69.59;101206.25;1750169;81;20905;-90
2022/09/02 03:18:47;;;;;;;5.75;3.92;;;;;;;12.07;69.82;101212.42;1751138;81;21449;-88
2022/09/02 03:21:14;;;;;;;7.75;3.85;;;;;;;12.08;69.99;101215.45;1750692;81;20941;-90
2022/09/02 03:23:43;;;;;;;6.53;4.62;;;;;;;12.10;70.12;101214.90;1750292;82;21035;-87
2022/09/02 03:26:16;;;;;;;7.80;4.90;;;;;;;12.13;70.05;101218.66;1750303;81;21128;-90
2022/09/02 03:28:43;;;;;;;11.88;5.35;;;;;;;12.14;69.93;101220.81;1727102;82;20950;-88
2022/09/02 03:31:17;;;;;;;8.80;5.92;;;;;;;12.15;69.76;101227.78;1750645;81;20889;-90
2022/09/02 03:33:43;;;;;;;13.90;6.05;;;;;;;12.15;69.84;101230.41;1751682;81;20877;-90
2022/09/02 03:36:32;;;;;;;15.23;5.62;;;;;;;12.17;69.97;101236.44;1750904;81;20936;-90
2022/09/02 03:39:01;;;;;;;12.68;4.60;;;;;;;12.17;69.93;101240.37;1750803;81;21451;-89
2022/09/02 03:41:28;;;;;;;7.92;5.15;;;;;;;12.17;69.85;101245.63;1750548;82;20893;-89
2022/09/02 03:43:56;;;;;;;9.83;5.50;;;;;;;12.18;70.00;101245.56;1750922;81;20913;-90
2022/09/02 03:46:23;;;;;;;16.57;7.17;;;;;;;12.19;70.45;101245.92;1750965;82;21012;-90
2022/09/02 03:48:51;;;;;;;16.10;9.53;;;;;;;12.21;70.26;101248.48;1750891;82;20885;-88
2022/09/02 03:51:21;;;;;;;17.02;8.68;;;;;;;12.23;69.95;101251.39;1750686;81;22040;-89
2022/09/02 03:53:52;;;;;;;12.82;8.63;;;;;;;12.25;69.86;101250.00;1750703;81;20901;-89
2022/09/02 03:56:20;;;;;;;13.03;8.15;;;;;;;12.31;69.82;101260.15;1742929;81;20862;-90
2022/09/02 03:58:48;;;;;;;13.83;7.35;;;;;;;12.37;69.69;101257.65;1750195;81;21032;-91
2022/09/02 04:01:19;;;;;;;21.77;9.85;;;;;;;12.44;69.59;101258.52;1750714;82;20918;-92
2022/09/02 04:03:46;;;;;;;20.88;10.15;;;;;;;12.53;69.38;101268.13;1749969;81;21141;-89
2022/09/02 04:06:15;;;;;;;15.03;8.50;;;;;;;12.63;69.44;101264.05;1750468;82;20890;-90
2022/09/02 04:08:43;;;;;;;16.10;8.48;;;;;;;12.73;69.10;101266.97;1750355;82;20995;-91
2022/09/02 04:11:16;;;;;;;16.40;7.35;;;;;;;12.83;68.88;101265.03;1749948;81;20870;-89
2022/09/02 04:13:45;;;;;;;18.10;8.63;;;;;;;12.94;68.69;101273.61;1750529;82;20989;-89
2022/09/02 04:16:17;;;;;;;12.68;6.87;;;;;;;13.03;68.59;101263.84;1750373;81;21283;-90
2022/09/02 04:18:45;;;;;;;13.32;6.83;;;;;;;13.13;68.38;101265.92;1750020;81;20898;-90
2022/09/02 04:21:12;;;;;;;17.95;7.42;;;;;;;13.22;68.49;101270.63;1750249;82;21395;-90
2022/09/02 04:23:40;;;;;;;13.05;7.62;;;;;;;13.29;68.30;101264.07;1750220;81;20878;-91
2022/09/02 04:26:10;;;;;;;15.55;7.45;;;;;;;13.38;68.27;101271.41;1751066;81;20919;-87
2022/09/02 04:28:37;;;;;;;15.78;7.37;;;;;;;13.52;67.95;101265.31;1750507;82;21429;-91
2022/09/02 04:31:07;;;;;;;12.95;6.95;;;;;;;13.52;67.95;101265.31;1750317;81;20934;-90
2022/09/02 04:33:35;;;;;;;17.20;7.17;;;;;;;13.60;67.86;101269.61;1750893;81;20941;-90
2022/09/02 04:36:07;;;;;;;14.45;7.72;;;;;;;13.70;67.74;101275.66;1750348;82;20941;-90
2022/09/02 04:38:35;;;;;;;10.40;6.83;;;;;;;13.81;67.61;101275.82;1750632;81;21012;-86
2022/09/02 04:41:11;;;;;;;15.35;7.80;;;;;;;13.91;67.37;101281.34;1750467;82;21747;-89
2022/09/02 04:43:39;;;;;;;15.23;7.10;;;;;;;14.02;67.35;101282.83;1750231;82;20901;-90
2022/09/02 04:46:09;;;;;;;15.72;7.55;;;;;;;14.19;67.25;101287.03;1750140;81;20945;-90
2022/09/02 04:48:36;;;;;;;16.32;6.08;;;;;;;14.29;66.97;101287.66;1750009;82;20945;-90
2022/09/02 04:51:15;;;;;;;9.30;5.65;;;;;;;14.39;66.87;101294.50;1750169;81;21059;-89
2022/09/02 04:53:43;;;;;;;15.15;6.25;;;;;;;14.55;66.78;101296.16;1751189;81;21290;-89
2022/09/02 04:56:13;;;;;;;15.98;7.28;;;;;;;14.77;66.30;101296.42;1750400;81;20882;-88
2022/09/02 04:58:43;;;;;;;13.90;5.53;;;;;;;15.17;65.95;101288.45;1750142;82;20905;-88
2022/09/02 05:01:14;;;;;;;12.40;5.08;;;;;;;15.81;64.73;101295.48;1750112;81;21375;-89
2022/09/02 05:03:43;;;;;;;8.35;4.70;;;;;;;16.64;62.74;101300.05;1750371;81;21028;-91
2022/09/02 05:06:13;;;;;;;10.72;4.55;;;;;;;17.60;59.85;101299.77;1750499;82;21955;-90
2022/09/02 05:08:43;;;;;;;12.85;4.67;;;;;;;18.52;56.99;101295.48;1750478;82;20898;-91
2022/09/02 05:11:16;;;;;;;8.98;4.12;;;;;;;19.42;54.48;101299.82;1750508;81;20965;-90
2022/09/02 05:13:43;;;;;;;10.32;4.62;;;;;;;20.27;52.10;101293.72;1750681;82;21438;-91
2022/09/02 05:16:21;;;;;;;9.60;4.22;;;;;;;21.08;49.91;101292.09;1750501;81;21348;-92
2022/09/02 05:18:50;;;;;;;6.42;3.40;;;;;;;21.86;48.19;101302.50;1729456;82;21368;-91
2022/09/02 05:21:17;;;;;;;7.90;3.42;;;;;;;22.59;45.56;101302.91;1750608;82;21414;-92
2022/09/02 05:23:44;;;;;;;9.58;4.25;;;;;;;23.10;43.58;101308.01;1750874;82;20906;-91
2022/09/02 05:26:12;;;;;;;7.95;6.17;;;;;;;23.55;42.13;101309.62;1750862;81;20913;-92
2022/09/02 05:28:39;;;;;;;3.98;2.95;;;;;;;23.95;40.19;101308.14;1750823;81;20945;-90
2022/09/02 05:31:11;;;;;;;6.37;3.20;;;;;;;24.24;39.09;101309.05;1750946;81;21221;-89
2022/09/02 05:33:40;;;;;;;5.50;3.25;;;;;;;24.51;37.98;101309.27;1751577;81;21138;-89
2022/09/02 05:36:16;;;;;;;5.35;2.70;;;;;;;24.72;37.29;101322.68;1752429;81;20906;-91
2022/09/02 05:38:46;;;;;;;7.12;3.45;;;;;;;24.98;36.70;101324.68;1752627;81;21164;-90
2022/09/02 05:41:18;;;;;;;4.50;2.80;;;;;;;25.25;35.92;101323.17;1752221;81;20985;-90
2022/09/02 05:43:47;;;;;;;4.20;3.17;;;;;;;25.54;35.36;101319.89;1727442;82;22771;-91
2022/09/02 05:46:16;;;;;;;3.30;2.33;;;;;;;25.68;35.10;101333.09;1751615;82;20893;-91
2022/09/02 05:49:07;;;;;;;4.05;2.77;;;;;;;25.75;34.49;101332.24;1753041;82;20977;-91
2022/09/02 05:51:48;;;;;;;3.83;3.05;;;;;;;25.98;34.27;101332.33;1752657;81;20932;-90
2022/09/02 05:54:24;;;;;;;3.58;2.72;;;;;;;26.32;33.91;101331.11;1639559;86;20959;-91
2022/09/02 05:56:53;;;;;;;5.47;3.62;;;;;;;26.48;33.58;101339.61;1639710;87;21169;-89
2022/09/02 05:59:21;;;;;;;5.85;2.60;;;;;;;26.57;33.60;101337.70;1639542;86;20860;-89
2022/09/02 06:01:48;;;;;;;5.08;3.00;;;;;;;26.85;33.15;101336.12;1639556;87;20896;-90
2022/09/02 06:04:15;;;;;;;5.53;3.27;;;;;;;27.13;31.96;101344.14;1639506;87;20987;-90
2022/09/02 06:06:42;;;;;;;4.92;2.62;;;;;;;27.21;31.97;101341.38;1639408;87;20934;-89
2022/09/02 06:09:13;;;;;;;6.03;2.52;;;;;;;27.33;32.13;101340.42;1639307;87;21142;-89
2022/09/02 06:11:48;;;;;;;6.60;3.05;;;;;;;27.63;31.88;101335.86;1638665;87;20923;-89
2022/09/02 06:14:20;;;;;;;5.70;2.15;;;;;;;28.02;31.69;101345.52;1605001;89;21042;-89
2022/09/02 06:16:50;;;;;;;6.17;2.52;;;;;;;28.42;31.07;101347.30;1632569;87;20979;-89
2022/09/02 06:19:19;;;;;;;4.58;3.22;;;;;;;28.72;30.49;101348.87;1605143;87;20965;-90
2022/09/02 06:21:47;;;;;;;5.70;3.55;;;;;;;28.89;29.97;101348.06;1632381;86;21035;-89
2022/09/02 06:26:19;;;;;;;6.17;2.42;;;;;;;29.03;29.97;101349.52;1802118;79;22643;-89
2022/09/02 06:28:48;;;;;;;5.87;2.58;;;;;;;29.11;29.71;101358.34;1742378;81;20845;-90
2022/09/02 06:31:21;;;;;;;5.65;2.40;;;;;;;29.31;29.33;101358.48;1761588;80;21295;-91
2022/09/02 06:33:55;;;;;;;4.55;2.58;;;;;;;29.50;29.27;101359.66;1699265;83;21519;-88
2022/09/02 06:36:27;;;;;;;3.98;2.52;;;;;;;29.84;28.87;101357.15;1726062;81;20970;-90
2022/09/02 06:38:56;;;;;;;5.08;2.75;;;;;;;30.04;28.25;101362.11;1726114;82;20955;-91
2022/09/02 06:41:27;;;;;;;3.60;2.17;;;;;;;30.10;27.92;101365.36;1726445;83;20935;-90
2022/09/02 06:43:57;;;;;;;5.92;2.47;;;;;;;30.09;28.56;101360.97;1726799;83;21909;-90
2022/09/02 06:46:31;;;;;;;4.67;2.35;;;;;;;30.28;28.08;101360.77;1727069;83;20951;-90
2022/09/02 06:49:01;;;;;;;4.80;2.65;;;;;;;30.63;28.09;101345.70;1726569;83;20931;-90
2022/09/02 06:51:35;;;;;;;9.13;2.15;;;;;;;30.96;27.40;101355.22;1728027;80;20883;-89
2022/09/02 06:54:03;;;;;;;2.98;2.02;;;;;;;31.25;26.63;101353.09;1710760;83;20970;-90
2022/09/02 06:56:32;;;;;;;4.15;1.65;;;;;;;31.49;26.45;101356.22;1725807;83;21155;-92
2022/09/02 06:58:59;;;;;;;4.42;3.35;;;;;;;31.68;26.38;101350.41;1725904;83;21021;-90
2022/09/02 07:01:30;;;;;;;5.28;2.00;;;;;;;31.84;25.92;101351.80;1724034;83;21384;-90
2022/09/02 07:06:48;;;;;;;5.87;1.40;;;;;;;32.17;25.25;101344.88;1727436;83;20987;-91
2022/09/02 07:09:22;;;;;;;7.80;1.82;;;;;;;32.39;24.91;101346.23;1728136;83;21172;-91
2022/09/02 07:11:50;;;;;;;7.30;1.67;;;;;;;32.64;24.56;101354.95;1728259;83;20891;-91
2022/09/02 07:14:19;;;;;;;1.90;1.50;;;;;;;32.76;23.67;101346.91;1728003;80;20892;-91
2022/09/02 07:16:51;;;;;;;3.77;1.47;;;;;;;32.77;23.35;101351.28;1728233;80;21010;-90
2022/09/02 07:19:19;;;;;;;3.35;1.30;;;;;;;32.89;23.41;101347.33;1728037;80;20927;-90
2022/09/02 07:21:48;;;;;;;4.62;1.32;;;;;;;33.09;23.35;101345.82;1728028;80;21581;-89
2022/09/02 07:24:15;;;;;;;4.00;1.47;;;;;;;33.20;23.08;101347.80;1727532;82;20855;-91
2022/09/02 07:26:43;;;;;;;4.92;1.70;;;;;;;33.10;22.40;101344.75;1719517;83;20911;-90
2022/09/02 07:29:10;;;;;;;2.35;1.25;;;;;;;33.01;22.81;101347.72;1719360;83;20927;-89
2022/09/02 07:31:39;;;;;;;3.95;1.50;;;;;;;33.24;22.64;101343.58;1691098;83;21306;-92
2022/09/02 07:34:06;;;;;;;3.77;1.32;;;;;;;33.48;22.22;101344.55;1719635;83;21382;-90
2022/09/02 07:36:35;;;;;;;3.98;1.10;;;;;;;33.57;21.45;101334.20;1719379;83;20958;-91
2022/09/02 07:39:06;;;;;;;8.70;7.87;;;;;;;33.52;21.26;101331.34;1719244;82;20978;-91
2022/09/02 07:41:35;;;;;;;90.12;81.50;;;;;;;33.52;21.09;101322.64;1714611;83;20920;-91
2022/09/02 07:44:03;;;;;;;6.50;4.35;;;;;;;33.44;20.72;101317.53;1755340;80;20944;-91
2022/09/02 07:46:31;;;;;;;3.30;0.93;;;;;;;33.44;21.24;101327.87;1754424;82;21488;-91
2022/09/02 07:49:00;;;;;;;2.20;0.90;;;;;;;33.50;20.83;101323.39;1718049;83;20853;-90
2022/09/02 07:51:27;;;;;;;4.20;0.85;;;;;;;33.44;21.05;101319.71;1719206;83;20896;-89
2022/09/02 07:53:54;;;;;;;1.75;0.37;;;;;;;33.58;20.29;101324.99;1690928;81;20892;-89
2022/09/02 07:56:21;;;;;;;2.52;0.50;;;;;;;33.78;19.34;101320.69;1719845;80;20994;-92
2022/09/02 07:58:49;;;;;;;2.45;0.37;;;;;;;33.57;18.98;101317.88;1719723;80;21125;-91
2022/09/02 08:01:16;;;;;;;4.00;0.50;;;;;;;33.23;18.66;101314.71;1719742;80;20971;-88
2022/09/02 08:03:44;;;;;;;0.60;0.33;;;;;;;32.82;18.61;101316.14;1719155;83;20944;-90
2022/09/02 08:06:12;;;;;;;0.70;0.50;;;;;;;32.78;18.87;101314.92;1719026;83;20951;-92
2022/09/02 08:08:41;;;;;;;1.50;0.37;;;;;;;32.97;18.53;101316.63;1719153;83;20928;-90
2022/09/02 08:11:08;;;;;;;2.20;0.50;;;;;;;32.93;18.25;101318.63;1718655;83;21369;-91
2022/09/02 08:13:36;;;;;;;0.65;0.28;;;;;;;32.85;18.56;101319.77;1718252;83;20915;-91
2022/09/02 08:16:03;;;;;;;3.55;2.52;;;;;;;32.89;18.34;101316.91;1718502;83;20975;-91
2022/09/02 08:18:30;;;;;;;3.92;0.80;;;;;;;32.88;18.18;101316.59;1718418;82;20927;-90
2022/09/02 08:20:57;;;;;;;2.98;0.75;;;;;;;32.78;18.40;101310.84;1718592;83;20883;-90
2022/09/02 08:23:24;;;;;;;0.42;0.20;;;;;;;32.94;18.82;101311.63;1719469;80;21145;-92
2022/09/02 08:25:51;;;;;;;1.98;0.88;;;;;;;33.30;18.39;101311.92;1719390;80;20865;-90
2022/09/02 08:28:18;;;;;;;0.47;0.30;;;;;;;33.53;17.90;101318.02;1719512;80;20944;-89
2022/09/02 08:30:45;;;;;;;0.98;0.53;;;;;;;33.76;17.51;101320.91;1719481;80;21421;-91
2022/09/02 08:33:14;;;;;;;3.10;1.45;;;;;;;33.88;17.38;101320.95;1718696;82;20955;-91
2022/09/02 08:35:41;;;;;;;0.55;0.47;;;;;;;34.14;17.24;101322.52;1718447;83;21190;-91
2022/09/02 08:38:07;;;;;;;1.72;1.02;;;;;;;34.37;17.35;101322.27;1718240;83;20888;-92
2022/09/02 08:40:39;;;;;;;2.35;0.50;;;;;;;34.58;17.17;101312.73;1718797;82;20924;-90
2022/09/02 08:43:30;;;;;;;1.77;0.40;;;;;;;34.58;17.05;101313.55;1719052;83;21262;-89
2022/09/02 08:46:03;;;;;;;1.57;0.95;;;;;;;34.62;17.09;101313.95;1714490;82;20964;-91
2022/09/02 08:48:51;;;;;;;3.05;0.70;;;;;;;34.70;17.12;101309.50;1719025;83;21315;-90
2022/09/02 08:51:32;;;;;;;0.60;0.30;;;;;;;34.94;17.04;101313.06;1736647;80;20890;-90
2022/09/02 08:54:17;;;;;;;0.45;0.20;;;;;;;35.09;16.80;101307.95;1724581;83;20886;-91
2022/09/02 08:56:47;;;;;;;1.82;0.42;;;;;;;35.09;16.32;101303.05;1724114;83;20911;-90
2022/09/02 08:59:19;;;;;;;1.00;0.47;;;;;;;34.80;16.62;101306.20;1724862;83;21083;-91
2022/09/02 09:02:26;;;;;;;2.33;0.40;;;;;;;34.69;16.73;101307.85;1697567;83;21384;-91
2022/09/02 09:05:20;;;;;;;0.45;0.42;;;;;;;34.67;16.38;101316.25;1723767;82;20875;-90
2022/09/02 09:08:20;;;;;;;6.00;4.42;;;;;;;34.60;16.64;101313.33;1724200;83;20954;-92
2022/09/02 09:11:13;;;;;;;4.72;4.22;;;;;;;34.55;16.20;101307.22;1724410;83;20906;-92
2022/09/02 09:14:23;;;;;;;5.80;1.00;;;;;;;34.14;16.08;101317.06;1662860;86;20885;-92
2022/09/02 09:17:14;;;;;;;2.65;0.70;;;;;;;33.72;16.30;101318.88;1662270;86;21182;-90
2022/09/02 09:19:57;;;;;;;2.08;0.65;;;;;;;33.55;16.89;101311.83;1659565;85;20980;-91
2022/09/02 09:22:38;;;;;;;1.72;0.50;;;;;;;33.58;17.12;101320.91;1662482;86;20975;-92
2022/09/02 09:25:11;;;;;;;1.00;0.35;;;;;;;33.75;17.24;101317.91;1662437;86;21096;-90
2022/09/02 09:27:39;;;;;;;4.17;0.50;;;;;;;33.95;16.96;101316.27;1662632;86;21517;-91
2022/09/02 09:30:09;;;;;;;2.55;0.93;;;;;;;33.93;17.22;101314.31;1662799;85;21988;-90
2022/09/02 09:32:41;;;;;;;3.12;0.50;;;;;;;34.09;17.35;101320.17;1662255;86;21008;-89
2022/09/02 09:35:13;;;;;;;2.02;0.40;;;;;;;34.35;16.93;101311.63;1663271;86;21009;-89
2022/09/02 09:37:45;;;;;;;1.35;0.30;;;;;;;34.47;16.55;101308.92;1640014;86;20925;-89
2022/09/02 09:40:25;;;;;;;2.63;0.97;;;;;;;34.48;16.59;101303.76;1662028;86;20964;-89
2022/09/02 09:43:11;;;;;;;3.08;0.40;;;;;;;34.66;16.14;101305.08;1661799;84;21263;-90
2022/09/02 09:45:42;;;;;;;1.10;0.42;;;;;;;34.96;16.07;101314.20;1661316;86;20949;-90
2022/09/02 09:48:26;;;;;;;1.62;0.60;;;;;;;34.97;15.81;101307.13;1661381;86;20945;-92
2022/09/02 09:51:01;;;;;;;1.95;0.40;;;;;;;34.66;16.06;101321.42;1693709;83;21009;-89
2022/09/02 09:53:32;;;;;;;3.30;0.30;;;;;;;34.36;16.14;101315.17;1699659;83;20971;-89
2022/09/02 09:56:04;;;;;;;0.95;0.40;;;;;;;34.20;16.50;101313.42;1699774;83;21259;-92
2022/09/02 09:58:45;;;;;;;0.70;0.40;;;;;;;34.30;16.84;101310.66;1700048;83;21378;-91
2022/09/02 10:01:18;;;;;;;0.50;0.40;;;;;;;34.45;16.83;101312.41;1701414;83;20947;-92
2022/09/02 10:04:01;;;;;;;1.67;0.33;;;;;;;34.70;16.50;101312.77;1730653;83;21420;-91
2022/09/02 10:06:35;;;;;;;1.95;0.30;;;;;;;34.74;16.30;101305.78;1699919;83;20904;-90
2022/09/02 10:09:22;;;;;;;2.40;0.28;;;;;;;34.36;15.56;101309.19;1700953;83;21240;-91
2022/09/02 10:12:00;;;;;;;1.72;0.33;;;;;;;33.90;16.09;101307.95;1728584;82;21002;-91
2022/09/02 10:14:46;;;;;;;0.98;0.57;;;;;;;33.63;16.46;101311.02;1699664;81;20900;-90
2022/09/02 10:17:45;;;;;;;0.70;0.37;;;;;;;33.73;16.71;101314.58;1700248;83;20880;-91
2022/09/02 10:20:29;;;;;;;1.47;0.30;;;;;;;33.82;16.59;101306.93;1744457;81;20977;-89
2022/09/02 10:23:25;;;;;;;1.85;0.45;;;;;;;33.70;16.28;101302.77;1699673;83;21169;-87
2022/09/02 10:26:01;;;;;;;0.33;0.20;;;;;;;33.49;16.65;101308.69;1700237;84;20927;-88
2022/09/02 10:28:47;;;;;;;2.15;0.20;;;;;;;33.52;16.66;101308.22;1700513;83;21003;-88
2022/09/02 10:31:20;;;;;;;0.53;0.40;;;;;;;33.58;16.32;101309.53;1745435;82;20961;-89
2022/09/02 10:34:17;;;;;;;0.28;0.20;;;;;;;33.59;16.37;101302.19;1700663;83;21102;-88
2022/09/02 10:37:23;;;;;;;1.05;0.95;;;;;;;33.41;16.64;101305.19;1700235;84;21803;-89
2022/09/02 10:40:12;;;;;;;5.10;4.60;;;;;;;33.61;16.61;101310.95;1701426;83;20911;-89
2022/09/02 10:43:04;;;;;;;1.90;0.70;;;;;;;33.41;16.59;101313.88;1701359;83;20916;-89
2022/09/02 10:45:45;;;;;;;1.95;0.40;;;;;;;33.50;16.83;101301.63;1700159;84;20923;-90
2022/09/02 10:48:29;;;;;;;1.42;0.40;;;;;;;33.71;16.63;101314.52;1743087;82;21332;-90
2022/09/02 10:51:41;;;;;;;10.90;9.95;;;;;;;33.79;16.03;101304.11;1711383;81;21877;-89
2022/09/02 10:54:34;;;;;;;3.70;3.40;;;;;;;33.74;16.51;101303.98;1762331;81;20915;-88
2022/09/02 10:57:23;;;;;;;2.20;0.55;;;;;;;33.80;16.85;101313.95;1743185;82;20903;-88
2022/09/02 10:59:58;;;;;;;2.20;0.60;;;;;;;33.82;16.55;101309.66;1742773;82;20936;-87
2022/09/02 11:02:33;;;;;;;0.85;0.35;;;;;;;33.67;16.59;101305.14;1742687;82;20879;-88
2022/09/02 11:05:05;;;;;;;2.02;0.37;;;;;;;33.59;16.62;101304.37;1731746;81;21477;-88
2022/09/02 11:07:38;;;;;;;2.00;0.40;;;;;;;33.53;16.46;101298.98;1726189;82;20910;-90
2022/09/02 11:10:29;;;;;;;;;;;;;;;33.45;16.37;101305.58;1739610;81;21031;-91
2022/09/02 11:13:10;;;;;;;0.88;0.78;;;;;;;33.36;16.58;101300.97;1711290;82;20285;-90
2022/09/02 11:15:46;;;;;;;1.65;0.50;;;;;;;33.49;16.37;101301.34;1738550;81;21001;-89
2022/09/02 11:18:36;;;;;;;2.42;0.60;;;;;;;33.72;16.38;101303.38;1738311;81;21159;-89
2022/09/02 11:21:20;;;;;;;0.82;0.60;;;;;;;33.75;16.45;101304.30;1738109;79;21565;-91
2022/09/02 11:23:56;;;;;;;0.47;0.47;;;;;;;33.64;15.93;101308.62;1736959;81;21002;-89
2022/09/02 11:26:31;;;;;;;1.98;1.47;;;;;;;33.45;16.11;101305.58;1736999;79;20957;-90
2022/09/02 11:29:29;;;;;;;2.45;0.93;;;;;;;33.32;15.92;101297.57;1736920;81;20960;-89
2022/09/02 11:32:17;;;;;;;4.97;3.20;;;;;;;32.97;16.19;101298.11;1737071;82;21117;-88
2022/09/02 11:41:18;;;;;;;70.83;65.17;;;;;;;32.05;17.83;101294.55;1633956;86;20952;-92
2022/09/02 11:44:17;;;;;;;3.60;3.05;;;;;;;31.99;18.29;101296.27;1635020;86;20943;-92
2022/09/02 11:47:30;;;;;;;0.60;0.47;;;;;;;31.81;17.72;101302.88;1616719;86;21436;-92
2022/09/02 11:50:10;;;;;;;4.67;0.40;;;;;;;31.74;17.74;101290.70;1634900;86;20936;-89
2022/09/02 11:53:07;;;;;;;6.10;0.80;;;;;;;31.74;18.29;101289.35;1635508;88;20984;-89
2022/09/02 11:55:52;;;;;;;2.45;0.50;;;;;;;31.35;17.62;101288.98;1616585;88;21075;-89
2022/09/02 11:58:40;;;;;;;0.68;0.40;;;;;;;30.75;17.83;101281.77;1632387;86;20912;-91
2022/09/02 12:01:38;;;;;;;2.00;0.40;;;;;;;30.45;18.37;101277.81;1617760;86;21244;-90
2022/09/02 12:07:13;;;;;;;2.80;0.50;;;;;;;29.71;18.96;101276.28;1579023;89;20963;-89